sensor_id;sensor_type;location;lat;lon;timestamp;pressure;altitude;pressure_sealevel;temperature;humidity
62150;BME280;48134;53.586;10.610;2024-03-29T00:00:58;98827.75;;;5.68;100.00
62150;BME280;48134;53.586;10.610;2024-03-29T00:03:25;98825.66;;;5.78;100.00
62150;BME280;48134;53.586;10.610;2024-03-29T00:05:52;98822.78;;;5.75;100.00
62150;BME280;48134;53.586;10.610;2024-03-29T00:08:18;98825.25;;;5.71;100.00
62150;BME280;48134;53.586;10.610;2024-03-29T00:10:46;98828.53;;;5.68;100.00
62150;BME280;48134;53.586;10.610;2024-03-29T00:13:13;98832.63;;;5.66;100.00
62150;BME280;48134;53.586;10.610;2024-03-29T00:15:39;98820.88;;;5.56;100.00
62150;BME280;48134;53.586;10.610;2024-03-29T00:18:07;98830.38;;;5.54;100.00
62150;BME280;48134;53.586;10.610;2024-03-29T00:20:34;98835.84;;;5.49;100.00
62150;BME280;48134;53.586;10.610;2024-03-29T00:23:00;98825.09;;;5.43;100.00
62150;BME280;48134;53.586;10.610;2024-03-29T00:25:27;98828.31;;;5.45;100.00
62150;BME280;48134;53.586;10.610;2024-03-29T00:27:53;98830.50;;;5.43;100.00
62150;BME280;48134;53.586;10.610;2024-03-29T00:30:20;98832.22;;;5.34;100.00
62150;BME280;48134;53.586;10.610;2024-03-29T00:32:46;98826.72;;;5.44;100.00
62150;BME280;48134;53.586;10.610;2024-03-29T00:35:14;98832.81;;;5.31;100.00
62150;BME280;48134;53.586;10.610;2024-03-29T00:37:41;98823.94;;;5.31;100.00
62150;BME280;48134;53.586;10.610;2024-03-29T00:40:08;98820.72;;;5.28;100.00
62150;BME280;48134;53.586;10.610;2024-03-29T00:42:35;98838.91;;;5.18;100.00
62150;BME280;48134;53.586;10.610;2024-03-29T00:45:02;98835.44;;;5.17;100.00
62150;BME280;48134;53.586;10.610;2024-03-29T00:47:29;98831.72;;;5.13;100.00
62150;BME280;48134;53.586;10.610;2024-03-29T00:49:55;98831.84;;;5.22;100.00
62150;BME280;48134;53.586;10.610;2024-03-29T00:52:23;98826.56;;;5.17;100.00
62150;BME280;48134;53.586;10.610;2024-03-29T00:54:50;98829.25;;;5.17;100.00
62150;BME280;48134;53.586;10.610;2024-03-29T00:57:16;98830.97;;;5.07;100.00
62150;BME280;48134;53.586;10.610;2024-03-29T00:59:43;98830.22;;;5.02;100.00
62150;BME280;48134;53.586;10.610;2024-03-29T01:02:10;98839.75;;;4.94;100.00
62150;BME280;48134;53.586;10.610;2024-03-29T01:04:37;98831.94;;;4.92;100.00
62150;BME280;48134;53.586;10.610;2024-03-29T01:07:03;98824.28;;;4.81;100.00
62150;BME280;48134;53.586;10.610;2024-03-29T01:09:31;98829.31;;;4.87;100.00
62150;BME280;48134;53.586;10.610;2024-03-29T01:11:58;98824.00;;;4.82;100.00
62150;BME280;48134;53.586;10.610;2024-03-29T01:14:24;98822.53;;;4.90;100.00
62150;BME280;48134;53.586;10.610;2024-03-29T01:16:51;98830.19;;;4.83;100.00
62150;BME280;48134;53.586;10.610;2024-03-29T01:19:17;98817.00;;;4.81;100.00
62150;BME280;48134;53.586;10.610;2024-03-29T01:21:44;98833.25;;;4.71;100.00
62150;BME280;48134;53.586;10.610;2024-03-29T01:24:11;98832.19;;;4.72;100.00
62150;BME280;48134;53.586;10.610;2024-03-29T01:26:39;98829.53;;;4.67;100.00
62150;BME280;48134;53.586;10.610;2024-03-29T01:29:05;98821.81;;;4.60;100.00
62150;BME280;48134;53.586;10.610;2024-03-29T01:31:32;98823.06;;;4.68;100.00
62150;BME280;48134;53.586;10.610;2024-03-29T01:33:59;98829.66;;;4.56;100.00
62150;BME280;48134;53.586;10.610;2024-03-29T01:36:25;98831.31;;;4.52;100.00
62150;BME280;48134;53.586;10.610;2024-03-29T01:38:52;98830.03;;;4.45;100.00
62150;BME280;48134;53.586;10.610;2024-03-29T01:41:18;98824.38;;;4.46;100.00
62150;BME280;48134;53.586;10.610;2024-03-29T01:43:46;98820.81;;;4.51;100.00
62150;BME280;48134;53.586;10.610;2024-03-29T01:46:13;98827.63;;;4.43;100.00
62150;BME280;48134;53.586;10.610;2024-03-29T01:48:41;98829.78;;;4.46;100.00
62150;BME280;48134;53.586;10.610;2024-03-29T01:51:10;98829.28;;;4.39;100.00
62150;BME280;48134;53.586;10.610;2024-03-29T01:53:39;98824.75;;;4.34;100.00
62150;BME280;48134;53.586;10.610;2024-03-29T01:56:07;98830.59;;;4.41;100.00
62150;BME280;48134;53.586;10.610;2024-03-29T01:58:36;98827.97;;;4.36;100.00
62150;BME280;48134;53.586;10.610;2024-03-29T02:01:07;98837.91;;;4.41;100.00
62150;BME280;48134;53.586;10.610;2024-03-29T02:03:35;98825.78;;;4.38;100.00
62150;BME280;48134;53.586;10.610;2024-03-29T02:06:03;98830.91;;;4.40;100.00
62150;BME280;48134;53.586;10.610;2024-03-29T02:08:32;98836.03;;;4.36;100.00
62150;BME280;48134;53.586;10.610;2024-03-29T02:11:00;98841.25;;;4.28;100.00
62150;BME280;48134;53.586;10.610;2024-03-29T02:13:27;98841.25;;;4.28;100.00
62150;BME280;48134;53.586;10.610;2024-03-29T02:15:55;98851.53;;;4.20;100.00
62150;BME280;48134;53.586;10.610;2024-03-29T02:18:24;98849.34;;;4.22;100.00
62150;BME280;48134;53.586;10.610;2024-03-29T02:20:52;98850.06;;;4.33;100.00
62150;BME280;48134;53.586;10.610;2024-03-29T02:23:26;98845.59;;;4.23;100.00
62150;BME280;48134;53.586;10.610;2024-03-29T02:25:55;98846.63;;;4.28;100.00
62150;BME280;48134;53.586;10.610;2024-03-29T02:28:23;98856.66;;;4.22;100.00
62150;BME280;48134;53.586;10.610;2024-03-29T02:30:51;98851.00;;;4.18;100.00
62150;BME280;48134;53.586;10.610;2024-03-29T02:33:20;98854.06;;;4.12;100.00
62150;BME280;48134;53.586;10.610;2024-03-29T02:35:48;98855.16;;;4.05;100.00
62150;BME280;48134;53.586;10.610;2024-03-29T02:38:15;98854.09;;;4.06;100.00
62150;BME280;48134;53.586;10.610;2024-03-29T02:40:42;98863.81;;;4.02;100.00
62150;BME280;48134;53.586;10.610;2024-03-29T02:43:11;98862.22;;;3.96;100.00
62150;BME280;48134;53.586;10.610;2024-03-29T02:45:39;98864.13;;;3.96;100.00
62150;BME280;48134;53.586;10.610;2024-03-29T02:48:06;98856.31;;;3.99;100.00
62150;BME280;48134;53.586;10.610;2024-03-29T02:50:34;98860.09;;;3.93;100.00
62150;BME280;48134;53.586;10.610;2024-03-29T02:53:00;98858.47;;;3.92;100.00
62150;BME280;48134;53.586;10.610;2024-03-29T02:55:27;98864.97;;;3.91;100.00
62150;BME280;48134;53.586;10.610;2024-03-29T02:57:54;98867.66;;;3.91;100.00
62150;BME280;48134;53.586;10.610;2024-03-29T03:00:23;98874.13;;;3.90;100.00
62150;BME280;48134;53.586;10.610;2024-03-29T03:02:49;98873.88;;;3.86;100.00
62150;BME280;48134;53.586;10.610;2024-03-29T03:05:17;98870.63;;;3.89;100.00
62150;BME280;48134;53.586;10.610;2024-03-29T03:07:43;98863.34;;;3.90;100.00
62150;BME280;48134;53.586;10.610;2024-03-29T03:10:28;98868.19;;;3.88;100.00
62150;BME280;48134;53.586;10.610;2024-03-29T03:13:13;98862.03;;;3.87;100.00
62150;BME280;48134;53.586;10.610;2024-03-29T03:15:42;98864.22;;;3.85;100.00
62150;BME280;48134;53.586;10.610;2024-03-29T03:18:09;98861.44;;;3.96;100.00
62150;BME280;48134;53.586;10.610;2024-03-29T03:20:36;98857.13;;;3.95;100.00
62150;BME280;48134;53.586;10.610;2024-03-29T03:23:04;98840.00;;;3.85;100.00
62150;BME280;48134;53.586;10.610;2024-03-29T03:25:30;98848.84;;;3.86;100.00
62150;BME280;48134;53.586;10.610;2024-03-29T03:27:58;98842.94;;;3.84;100.00
62150;BME280;48134;53.586;10.610;2024-03-29T03:30:24;98841.06;;;3.84;100.00
62150;BME280;48134;53.586;10.610;2024-03-29T03:32:53;98833.56;;;3.81;100.00
62150;BME280;48134;53.586;10.610;2024-03-29T03:35:20;98834.69;;;3.70;100.00
62150;BME280;48134;53.586;10.610;2024-03-29T03:37:47;98843.06;;;3.63;100.00
62150;BME280;48134;53.586;10.610;2024-03-29T03:40:13;98836.91;;;3.63;100.00
62150;BME280;48134;53.586;10.610;2024-03-29T03:42:41;98848.13;;;3.75;100.00
62150;BME280;48134;53.586;10.610;2024-03-29T03:45:08;98849.56;;;3.62;100.00
62150;BME280;48134;53.586;10.610;2024-03-29T03:47:36;98855.41;;;3.69;100.00
62150;BME280;48134;53.586;10.610;2024-03-29T03:50:04;98850.31;;;3.68;100.00
62150;BME280;48134;53.586;10.610;2024-03-29T03:52:32;98852.25;;;3.62;100.00
62150;BME280;48134;53.586;10.610;2024-03-29T03:54:58;98856.28;;;3.60;100.00
62150;BME280;48134;53.586;10.610;2024-03-29T03:57:26;98854.69;;;3.58;100.00
62150;BME280;48134;53.586;10.610;2024-03-29T03:59:52;98852.56;;;3.50;100.00
62150;BME280;48134;53.586;10.610;2024-03-29T04:02:20;98862.81;;;3.48;100.00
62150;BME280;48134;53.586;10.610;2024-03-29T04:04:47;98874.06;;;3.55;100.00
62150;BME280;48134;53.586;10.610;2024-03-29T04:07:16;98871.13;;;3.52;100.00
62150;BME280;48134;53.586;10.610;2024-03-29T04:09:42;98861.19;;;3.47;100.00
62150;BME280;48134;53.586;10.610;2024-03-29T04:12:09;98874.66;;;3.47;100.00
62150;BME280;48134;53.586;10.610;2024-03-29T04:14:36;98883.28;;;3.44;100.00
62150;BME280;48134;53.586;10.610;2024-03-29T04:17:03;98875.22;;;3.44;100.00
62150;BME280;48134;53.586;10.610;2024-03-29T04:19:30;98874.66;;;3.47;100.00
62150;BME280;48134;53.586;10.610;2024-03-29T04:21:58;98870.38;;;3.41;100.00
62150;BME280;48134;53.586;10.610;2024-03-29T04:24:27;98861.75;;;3.44;100.00
62150;BME280;48134;53.586;10.610;2024-03-29T04:26:55;98855.34;;;3.40;100.00
62150;BME280;48134;53.586;10.610;2024-03-29T04:29:22;98861.00;;;3.38;100.00
62150;BME280;48134;53.586;10.610;2024-03-29T04:31:49;98850.75;;;3.40;100.00
62150;BME280;48134;53.586;10.610;2024-03-29T04:34:16;98853.97;;;3.43;100.00
62150;BME280;48134;53.586;10.610;2024-03-29T04:36:44;98851.59;;;3.36;100.00
62150;BME280;48134;53.586;10.610;2024-03-29T04:39:11;98858.31;;;3.38;100.00
62150;BME280;48134;53.586;10.610;2024-03-29T04:41:40;98847.78;;;3.37;100.00
62150;BME280;48134;53.586;10.610;2024-03-29T04:44:07;98838.09;;;3.41;100.00
62150;BME280;48134;53.586;10.610;2024-03-29T04:46:35;98835.97;;;3.38;100.00
62150;BME280;48134;53.586;10.610;2024-03-29T04:49:02;98843.22;;;3.43;100.00
62150;BME280;48134;53.586;10.610;2024-03-29T04:51:30;98852.34;;;3.47;100.00
62150;BME280;48134;53.586;10.610;2024-03-29T04:53:57;98848.28;;;3.49;100.00
62150;BME280;48134;53.586;10.610;2024-03-29T04:56:25;98838.50;;;3.64;100.00
62150;BME280;48134;53.586;10.610;2024-03-29T04:58:53;98865.91;;;3.71;100.00
62150;BME280;48134;53.586;10.610;2024-03-29T05:01:21;98864.06;;;3.66;100.00
62150;BME280;48134;53.586;10.610;2024-03-29T05:03:48;98880.19;;;3.66;100.00
62150;BME280;48134;53.586;10.610;2024-03-29T05:06:17;98878.00;;;3.68;100.00
62150;BME280;48134;53.586;10.610;2024-03-29T05:08:44;98871.75;;;3.78;100.00
62150;BME280;48134;53.586;10.610;2024-03-29T05:11:12;98881.53;;;3.69;100.00
62150;BME280;48134;53.586;10.610;2024-03-29T05:13:41;98886.56;;;3.75;100.00
62150;BME280;48134;53.586;10.610;2024-03-29T05:16:10;98896.25;;;3.77;100.00
62150;BME280;48134;53.586;10.610;2024-03-29T05:18:37;98906.50;;;3.74;100.00
62150;BME280;48134;53.586;10.610;2024-03-29T05:21:05;98901.13;;;3.74;100.00
62150;BME280;48134;53.586;10.610;2024-03-29T05:23:33;98895.97;;;3.83;100.00
62150;BME280;48134;53.586;10.610;2024-03-29T05:26:00;98902.38;;;3.87;100.00
62150;BME280;48134;53.586;10.610;2024-03-29T05:28:28;98891.13;;;3.80;100.00
62150;BME280;48134;53.586;10.610;2024-03-29T05:30:55;98900.25;;;3.84;100.00
62150;BME280;48134;53.586;10.610;2024-03-29T05:33:24;98908.34;;;3.84;100.00
62150;BME280;48134;53.586;10.610;2024-03-29T05:35:52;98900.25;;;3.84;100.00
62150;BME280;48134;53.586;10.610;2024-03-29T05:38:19;98900.25;;;3.84;100.00
62150;BME280;48134;53.586;10.610;2024-03-29T05:40:47;98891.88;;;3.91;100.00
62150;BME280;48134;53.586;10.610;2024-03-29T05:43:14;98901.53;;;3.92;100.00
62150;BME280;48134;53.586;10.610;2024-03-29T05:45:42;98903.97;;;3.94;100.00
62150;BME280;48134;53.586;10.610;2024-03-29T05:48:09;98894.25;;;3.98;100.00
62150;BME280;48134;53.586;10.610;2024-03-29T05:50:38;98908.22;;;4.00;100.00
62150;BME280;48134;53.586;10.610;2024-03-29T05:53:05;98920.31;;;4.07;100.00
62150;BME280;48134;53.586;10.610;2024-03-29T05:55:33;98915.63;;;4.18;100.00
62150;BME280;48134;53.586;10.610;2024-03-29T05:58:00;98929.38;;;4.17;100.00
62150;BME280;48134;53.586;10.610;2024-03-29T06:00:28;98933.72;;;4.13;100.00
62150;BME280;48134;53.586;10.610;2024-03-29T06:02:56;98929.94;;;4.14;100.00
62150;BME280;48134;53.586;10.610;2024-03-29T06:05:24;98927.22;;;4.19;100.00
62150;BME280;48134;53.586;10.610;2024-03-29T06:07:53;98919.09;;;4.24;100.00
62150;BME280;48134;53.586;10.610;2024-03-29T06:10:20;98930.09;;;4.28;100.00
62150;BME280;48134;53.586;10.610;2024-03-29T06:12:48;98927.94;;;4.30;100.00
62150;BME280;48134;53.586;10.610;2024-03-29T06:15:15;98934.56;;;4.42;100.00
62150;BME280;48134;53.586;10.610;2024-03-29T06:18:01;98935.94;;;4.40;100.00
62150;BME280;48134;53.586;10.610;2024-03-29T06:20:28;98925.13;;;4.45;100.00
62150;BME280;48134;53.586;10.610;2024-03-29T06:22:57;98927.50;;;4.52;100.00
62150;BME280;48134;53.586;10.610;2024-03-29T06:25:25;98932.03;;;4.56;100.00
62150;BME280;48134;53.586;10.610;2024-03-29T06:27:52;98937.38;;;4.62;100.00
62150;BME280;48134;53.586;10.610;2024-03-29T06:30:20;98931.66;;;4.68;100.00
62150;BME280;48134;53.586;10.610;2024-03-29T06:32:48;98941.00;;;4.76;100.00
62150;BME280;48134;53.586;10.610;2024-03-29T06:35:15;98949.56;;;4.83;100.00
62150;BME280;48134;53.586;10.610;2024-03-29T06:37:43;98951.72;;;4.86;100.00
62150;BME280;48134;53.586;10.610;2024-03-29T06:40:12;98960.72;;;5.01;100.00
62150;BME280;48134;53.586;10.610;2024-03-29T06:42:39;98962.09;;;4.98;100.00
62150;BME280;48134;53.586;10.610;2024-03-29T06:45:08;98958.81;;;5.01;100.00
62150;BME280;48134;53.586;10.610;2024-03-29T06:47:36;98969.84;;;5.05;100.00
62150;BME280;48134;53.586;10.610;2024-03-29T06:50:04;98960.09;;;5.09;100.00
62150;BME280;48134;53.586;10.610;2024-03-29T06:52:32;98967.31;;;5.14;100.00
62150;BME280;48134;53.586;10.610;2024-03-29T06:55:00;98972.38;;;5.20;100.00
62150;BME280;48134;53.586;10.610;2024-03-29T06:57:29;98961.25;;;5.27;100.00
62150;BME280;48134;53.586;10.610;2024-03-29T06:59:57;98965.28;;;5.30;100.00
62150;BME280;48134;53.586;10.610;2024-03-29T07:02:25;98952.97;;;5.42;100.00
62150;BME280;48134;53.586;10.610;2024-03-29T07:04:52;98966.47;;;5.42;100.00
62150;BME280;48134;53.586;10.610;2024-03-29T07:07:20;98959.66;;;5.50;100.00
62150;BME280;48134;53.586;10.610;2024-03-29T07:09:47;98962.78;;;5.57;100.00
62150;BME280;48134;53.586;10.610;2024-03-29T07:12:15;98964.63;;;5.62;100.00
62150;BME280;48134;53.586;10.610;2024-03-29T07:14:43;98962.69;;;5.68;100.00
62150;BME280;48134;53.586;10.610;2024-03-29T07:17:11;98956.06;;;5.79;100.00
62150;BME280;48134;53.586;10.610;2024-03-29T07:19:39;98957.28;;;5.87;100.00
62150;BME280;48134;53.586;10.610;2024-03-29T07:22:06;98961.00;;;5.91;100.00
62150;BME280;48134;53.586;10.610;2024-03-29T07:24:34;98965.03;;;5.93;100.00
62150;BME280;48134;53.586;10.610;2024-03-29T07:27:01;98966.91;;;5.98;100.00
62150;BME280;48134;53.586;10.610;2024-03-29T07:29:29;98959.81;;;6.02;100.00
62150;BME280;48134;53.586;10.610;2024-03-29T07:32:01;98966.88;;;6.17;100.00
62150;BME280;48134;53.586;10.610;2024-03-29T07:34:29;98964.19;;;6.17;100.00
62150;BME280;48134;53.586;10.610;2024-03-29T07:36:56;98982.81;;;6.19;100.00
62150;BME280;48134;53.586;10.610;2024-03-29T07:39:23;98990.34;;;6.41;100.00
62150;BME280;48134;53.586;10.610;2024-03-29T07:41:51;98991.63;;;6.43;100.00
62150;BME280;48134;53.586;10.610;2024-03-29T07:44:19;98990.91;;;6.38;100.00
62150;BME280;48134;53.586;10.610;2024-03-29T07:46:46;98991.91;;;6.42;100.00
62150;BME280;48134;53.586;10.610;2024-03-29T07:49:15;98993.75;;;6.46;100.00
62150;BME280;48134;53.586;10.610;2024-03-29T07:51:47;98985.34;;;6.48;100.00
62150;BME280;48134;53.586;10.610;2024-03-29T07:54:15;99000.06;;;6.56;100.00
62150;BME280;48134;53.586;10.610;2024-03-29T07:56:42;99004.50;;;6.66;100.00
62150;BME280;48134;53.586;10.610;2024-03-29T07:59:10;99006.06;;;6.72;100.00
62150;BME280;48134;53.586;10.610;2024-03-29T08:01:37;99006.19;;;6.80;100.00
62150;BME280;48134;53.586;10.610;2024-03-29T08:04:07;99014.94;;;6.91;100.00
62150;BME280;48134;53.586;10.610;2024-03-29T08:06:36;99005.50;;;6.89;100.00
62150;BME280;48134;53.586;10.610;2024-03-29T08:09:03;99004.75;;;7.02;100.00
62150;BME280;48134;53.586;10.610;2024-03-29T08:11:31;99006.06;;;7.05;100.00
62150;BME280;48134;53.586;10.610;2024-03-29T08:13:58;99006.38;;;7.17;100.00
62150;BME280;48134;53.586;10.610;2024-03-29T08:16:26;99023.63;;;7.21;100.00
62150;BME280;48134;53.586;10.610;2024-03-29T08:18:53;99018.13;;;7.40;100.00
62150;BME280;48134;53.586;10.610;2024-03-29T08:21:20;99018.03;;;7.45;100.00
62150;BME280;48134;53.586;10.610;2024-03-29T08:23:49;99015.75;;;7.53;100.00
62150;BME280;48134;53.586;10.610;2024-03-29T08:26:17;99025.56;;;7.62;100.00
62150;BME280;48134;53.586;10.610;2024-03-29T08:28:45;99030.38;;;7.65;100.00
62150;BME280;48134;53.586;10.610;2024-03-29T08:31:12;99031.97;;;7.80;100.00
62150;BME280;48134;53.586;10.610;2024-03-29T08:33:41;99037.69;;;7.65;100.00
62150;BME280;48134;53.586;10.610;2024-03-29T08:36:09;99038.50;;;7.65;100.00
62150;BME280;48134;53.586;10.610;2024-03-29T08:38:37;99052.81;;;7.52;100.00
62150;BME280;48134;53.586;10.610;2024-03-29T08:41:10;99039.88;;;7.35;100.00
62150;BME280;48134;53.586;10.610;2024-03-29T08:43:37;99032.16;;;7.42;100.00
62150;BME280;48134;53.586;10.610;2024-03-29T08:46:05;99019.09;;;7.30;100.00
62150;BME280;48134;53.586;10.610;2024-03-29T08:48:35;99020.53;;;7.28;100.00
62150;BME280;48134;53.586;10.610;2024-03-29T08:51:06;99003.69;;;7.31;100.00
62150;BME280;48134;53.586;10.610;2024-03-29T08:53:33;98989.63;;;7.15;100.00
62150;BME280;48134;53.586;10.610;2024-03-29T08:56:01;99005.69;;;7.25;100.00
62150;BME280;48134;53.586;10.610;2024-03-29T08:58:30;99014.50;;;7.17;100.00
62150;BME280;48134;53.586;10.610;2024-03-29T09:00:58;99014.28;;;7.13;100.00
62150;BME280;48134;53.586;10.610;2024-03-29T09:03:27;99005.75;;;7.06;100.00
62150;BME280;48134;53.586;10.610;2024-03-29T09:05:54;99005.47;;;7.22;100.00
62150;BME280;48134;53.586;10.610;2024-03-29T09:08:22;99005.66;;;7.11;100.00
62150;BME280;48134;53.586;10.610;2024-03-29T09:10:49;98999.75;;;7.09;100.00
62150;BME280;48134;53.586;10.610;2024-03-29T09:13:17;98990.53;;;7.24;100.00
62150;BME280;48134;53.586;10.610;2024-03-29T09:15:46;98982.63;;;7.14;100.00
62150;BME280;48134;53.586;10.610;2024-03-29T09:18:15;98989.63;;;7.15;100.00
62150;BME280;48134;53.586;10.610;2024-03-29T09:20:56;98996.25;;;7.23;100.00
62150;BME280;48134;53.586;10.610;2024-03-29T09:23:25;98984.84;;;7.26;100.00
62150;BME280;48134;53.586;10.610;2024-03-29T09:25:54;98976.22;;;7.24;100.00
62150;BME280;48134;53.586;10.610;2024-03-29T09:28:22;98977.50;;;7.26;100.00
62150;BME280;48134;53.586;10.610;2024-03-29T09:30:57;98970.22;;;7.27;100.00
62150;BME280;48134;53.586;10.610;2024-03-29T09:33:24;98957.88;;;7.21;100.00
62150;BME280;48134;53.586;10.610;2024-03-29T09:35:54;98957.78;;;7.26;100.00
62150;BME280;48134;53.586;10.610;2024-03-29T09:38:23;98954.88;;;7.22;100.00
62150;BME280;48134;53.586;10.610;2024-03-29T09:40:58;98948.97;;;7.20;100.00
62150;BME280;48134;53.586;10.610;2024-03-29T09:43:28;98952.44;;;7.21;100.00
62150;BME280;48134;53.586;10.610;2024-03-29T09:45:58;98960.38;;;7.17;100.00
62150;BME280;48134;53.586;10.610;2024-03-29T09:48:26;98960.78;;;7.10;100.00
62150;BME280;48134;53.586;10.610;2024-03-29T09:50:59;98958.06;;;7.10;100.00
62150;BME280;48134;53.586;10.610;2024-03-29T09:53:26;98932.03;;;7.14;100.00
62150;BME280;48134;53.586;10.610;2024-03-29T09:55:54;98941.84;;;7.10;100.00
62150;BME280;48134;53.586;10.610;2024-03-29T09:58:22;98940.22;;;7.09;100.00
62150;BME280;48134;53.586;10.610;2024-03-29T10:00:49;98937.81;;;7.08;100.00
62150;BME280;48134;53.586;10.610;2024-03-29T10:03:18;98940.53;;;7.08;100.00
62150;BME280;48134;53.586;10.610;2024-03-29T10:05:46;98937.91;;;7.03;100.00
62150;BME280;48134;53.586;10.610;2024-03-29T10:08:14;98938.34;;;7.10;100.00
62150;BME280;48134;53.586;10.610;2024-03-29T10:10:42;98922.81;;;7.02;100.00
62150;BME280;48134;53.586;10.610;2024-03-29T10:13:10;98925.41;;;7.07;100.00
62150;BME280;48134;53.586;10.610;2024-03-29T10:15:37;98928.09;;;7.07;100.00
62150;BME280;48134;53.586;10.610;2024-03-29T10:18:09;98921.50;;;7.13;100.00
62150;BME280;48134;53.586;10.610;2024-03-29T10:20:38;98891.13;;;7.16;100.00
62150;BME280;48134;53.586;10.610;2024-03-29T10:23:05;98898.66;;;7.19;100.00
62150;BME280;48134;53.586;10.610;2024-03-29T10:25:33;98909.28;;;7.29;100.00
62150;BME280;48134;53.586;10.610;2024-03-29T10:28:01;98892.53;;;7.41;100.00
62150;BME280;48134;53.586;10.610;2024-03-29T10:30:29;98908.88;;;7.36;100.00
62150;BME280;48134;53.586;10.610;2024-03-29T10:32:57;98911.28;;;7.38;100.00
62150;BME280;48134;53.586;10.610;2024-03-29T10:35:25;98923.81;;;7.34;100.00
62150;BME280;48134;53.586;10.610;2024-03-29T10:37:54;98908.44;;;7.43;100.00
62150;BME280;48134;53.586;10.610;2024-03-29T10:40:21;98915.47;;;7.44;100.00
62150;BME280;48134;53.586;10.610;2024-03-29T10:42:52;98913.47;;;7.49;100.00
62150;BME280;48134;53.586;10.610;2024-03-29T10:45:20;98912.97;;;7.47;100.00
62150;BME280;48134;53.586;10.610;2024-03-29T10:47:50;98907.56;;;7.34;100.00
62150;BME280;48134;53.586;10.610;2024-03-29T10:50:20;98903.97;;;7.38;100.00
62150;BME280;48134;53.586;10.610;2024-03-29T10:52:49;98901.75;;;7.40;100.00
62150;BME280;48134;53.586;10.610;2024-03-29T10:55:20;98910.97;;;7.39;100.00
62150;BME280;48134;53.586;10.610;2024-03-29T10:57:49;98907.44;;;7.39;100.00
62150;BME280;48134;53.586;10.610;2024-03-29T11:00:22;98902.56;;;7.41;100.00
62150;BME280;48134;53.586;10.610;2024-03-29T11:02:52;98918.28;;;7.39;100.00
62150;BME280;48134;53.586;10.610;2024-03-29T11:05:26;98915.00;;;7.42;100.00
62150;BME280;48134;53.586;10.610;2024-03-29T11:07:56;98915.66;;;7.61;100.00
62150;BME280;48134;53.586;10.610;2024-03-29T11:10:29;98901.31;;;7.75;100.00
62150;BME280;48134;53.586;10.610;2024-03-29T11:13:00;98899.03;;;7.91;100.00
62150;BME280;48134;53.586;10.610;2024-03-29T11:15:30;98900.66;;;7.92;100.00
62150;BME280;48134;53.586;10.610;2024-03-29T11:17:59;98886.75;;;8.07;100.00
62150;BME280;48134;53.586;10.610;2024-03-29T11:20:28;98887.63;;;8.16;100.00
62150;BME280;48134;53.586;10.610;2024-03-29T11:23:02;98892.41;;;8.20;100.00
62150;BME280;48134;53.586;10.610;2024-03-29T11:25:44;98890.03;;;8.18;100.00
62150;BME280;48134;53.586;10.610;2024-03-29T11:28:12;98888.47;;;8.26;100.00
62150;BME280;48134;53.586;10.610;2024-03-29T11:30:42;98893.41;;;8.24;100.00
62150;BME280;48134;53.586;10.610;2024-03-29T11:33:27;98895.81;;;8.25;100.00
62150;BME280;48134;53.586;10.610;2024-03-29T11:35:55;98902.22;;;8.29;100.00
62150;BME280;48134;53.586;10.610;2024-03-29T11:38:29;98902.47;;;8.19;100.00
62150;BME280;48134;53.586;10.610;2024-03-29T11:41:03;98906.47;;;8.44;100.00
62150;BME280;48134;53.586;10.610;2024-03-29T11:43:32;98908.72;;;8.74;100.00
62150;BME280;48134;53.586;10.610;2024-03-29T11:46:00;98902.56;;;8.91;100.00
62150;BME280;48134;53.586;10.610;2024-03-29T11:48:30;98912.28;;;8.83;100.00
62150;BME280;48134;53.586;10.610;2024-03-29T11:50:58;98911.03;;;8.89;100.00
62150;BME280;48134;53.586;10.610;2024-03-29T11:53:28;98909.03;;;9.04;100.00
62150;BME280;48134;53.586;10.610;2024-03-29T11:55:57;98914.72;;;9.33;100.00
62150;BME280;48134;53.586;10.610;2024-03-29T11:58:28;98922.28;;;9.45;100.00
62150;BME280;48134;53.586;10.610;2024-03-29T12:00:57;98922.09;;;9.42;100.00
62150;BME280;48134;53.586;10.610;2024-03-29T12:03:32;98920.56;;;9.67;100.00
62150;BME280;48134;53.586;10.610;2024-03-29T12:06:16;98905.69;;;9.56;100.00
62150;BME280;48134;53.586;10.610;2024-03-29T12:08:48;98900.13;;;9.69;100.00
62150;BME280;48134;53.586;10.610;2024-03-29T12:11:40;98902.47;;;9.53;100.00
62150;BME280;48134;53.586;10.610;2024-03-29T12:14:16;98902.00;;;9.51;100.00
62150;BME280;48134;53.586;10.610;2024-03-29T12:16:44;98902.66;;;9.66;100.00
62150;BME280;48134;53.586;10.610;2024-03-29T12:19:25;98907.91;;;9.53;100.00
62150;BME280;48134;53.586;10.610;2024-03-29T12:21:55;98902.66;;;9.57;100.00
62150;BME280;48134;53.586;10.610;2024-03-29T12:24:26;98892.72;;;9.44;100.00
62150;BME280;48134;53.586;10.610;2024-03-29T12:26:56;98912.50;;;9.44;100.00
62150;BME280;48134;53.586;10.610;2024-03-29T12:32:22;98912.19;;;9.46;100.00
62150;BME280;48134;53.586;10.610;2024-03-29T12:35:07;98894.28;;;9.36;100.00
62150;BME280;48134;53.586;10.610;2024-03-29T12:37:50;98897.50;;;9.38;100.00
62150;BME280;48134;53.586;10.610;2024-03-29T12:40:20;98916.66;;;9.42;100.00
62150;BME280;48134;53.586;10.610;2024-03-29T12:42:56;98909.66;;;9.49;100.00
62150;BME280;48134;53.586;10.610;2024-03-29T12:45:38;98892.91;;;9.47;100.00
62150;BME280;48134;53.586;10.610;2024-03-29T12:48:16;98904.72;;;9.51;100.00
62150;BME280;48134;53.586;10.610;2024-03-29T12:51:20;98914.97;;;9.72;100.00
62150;BME280;48134;53.586;10.610;2024-03-29T12:53:51;98922.78;;;9.56;100.00
62150;BME280;48134;53.586;10.610;2024-03-29T12:56:20;98944.84;;;9.63;100.00
62150;BME280;48134;53.586;10.610;2024-03-29T12:58:51;98929.97;;;9.61;100.00
62150;BME280;48134;53.586;10.610;2024-03-29T13:01:21;98918.53;;;9.99;100.00